createdAt,value
2022-11-01T00:02:17.919Z,92.88
2022-11-01T00:04:45.327Z,92.93
2022-11-01T00:07:12.672Z,92.77
2022-11-01T00:09:40.009Z,93.63
2022-11-01T00:12:07.449Z,94.05
2022-11-01T00:14:34.851Z,95.00
2022-11-01T00:17:02.742Z,95.86
2022-11-01T00:19:30.120Z,96.34
2022-11-01T00:21:57.478Z,96.86
2022-11-01T00:24:27.924Z,96.68
2022-11-01T00:26:58.207Z,95.75
2022-11-01T00:29:28.585Z,94.37
2022-11-01T00:31:56.782Z,94.56
2022-11-01T00:34:26.492Z,95.07
2022-11-01T00:36:54.395Z,95.04
2022-11-01T00:39:21.758Z,94.39
2022-11-01T00:41:49.086Z,93.98
2022-11-01T00:44:17.754Z,93.36
2022-11-01T00:46:45.076Z,94.15
2022-11-01T00:49:12.492Z,94.91
2022-11-01T00:51:39.875Z,95.45
2022-11-01T00:54:07.482Z,95.26
2022-11-01T00:56:37.747Z,95.62
2022-11-01T00:59:05.101Z,95.33
2022-11-01T01:01:32.775Z,94.85
2022-11-01T01:04:00.180Z,94.52
2022-11-01T01:06:27.454Z,93.87
2022-11-01T01:08:58.524Z,93.18
2022-11-01T01:11:26.316Z,93.24
2022-11-01T01:13:53.678Z,93.87
2022-11-01T01:16:21.100Z,93.76
2022-11-01T01:18:49.577Z,94.19
2022-11-01T01:21:17.600Z,94.70
2022-11-01T01:23:46.782Z,94.94
2022-11-01T01:26:14.473Z,95.68
2022-11-01T01:28:43.769Z,96.08
2022-11-01T01:31:16.187Z,96.39
2022-11-01T01:33:43.583Z,96.42
2022-11-01T01:36:11.145Z,96.95
2022-11-01T01:38:38.627Z,96.98
2022-11-01T01:41:25.421Z,98.17
2022-11-01T01:43:52.856Z,98.37
2022-11-01T01:46:20.468Z,98.47
2022-11-01T01:48:54.961Z,98.02
2022-11-01T01:51:26.459Z,97.81
2022-11-01T01:53:58.104Z,97.78
2022-11-01T01:56:30.789Z,97.42
2022-11-01T01:59:03.170Z,97.67
2022-11-01T02:01:31.715Z,98.18
2022-11-01T02:04:02.625Z,97.74
2022-11-01T02:06:33.373Z,97.85
2022-11-01T02:09:03.227Z,96.52
2022-11-01T02:11:30.537Z,96.66
2022-11-01T02:13:58.895Z,97.29
2022-11-01T02:16:52.279Z,96.74
2022-11-01T02:19:25.612Z,97.73
2022-11-01T02:22:20.382Z,97.66
2022-11-01T02:25:10.917Z,98.60
2022-11-01T02:27:56.432Z,99.51
2022-11-01T02:30:26.111Z,99.76
2022-11-01T02:33:05.654Z,100.00
2022-11-01T02:35:45.064Z,100.00
2022-11-01T02:38:41.663Z,100.00
2022-11-01T02:41:25.037Z,100.00
2022-11-01T02:44:02.362Z,100.00
2022-11-01T02:46:58.523Z,100.00
2022-11-01T02:49:34.060Z,100.00
2022-11-01T02:52:02.859Z,100.00
2022-11-01T02:54:38.962Z,100.00
2022-11-01T02:57:27.607Z,100.00
2022-11-01T03:00:05.072Z,100.00
2022-11-01T03:02:41.548Z,100.00
2022-11-01T03:05:16.944Z,99.28
2022-11-01T03:07:50.520Z,99.54
2022-11-01T03:10:24.197Z,99.68
2022-11-01T03:13:02.288Z,100.00
2022-11-01T03:15:39.669Z,100.00
2022-11-01T03:18:21.765Z,100.00
2022-11-01T03:21:00.870Z,99.61
2022-11-01T03:23:36.337Z,99.60
2022-11-01T03:26:08.927Z,100.00
2022-11-01T03:28:45.913Z,100.00
2022-11-01T03:31:24.187Z,100.00
2022-11-01T03:33:56.568Z,100.00
2022-11-01T03:36:27.845Z,100.00
2022-11-01T03:38:59.800Z,100.00
2022-11-01T03:41:28.305Z,100.00
2022-11-01T03:43:56.160Z,100.00
2022-11-01T03:46:26.241Z,99.79
2022-11-01T03:48:53.597Z,99.69
2022-11-01T03:51:22.130Z,99.35
2022-11-01T03:53:49.461Z,99.97
2022-11-01T03:56:16.806Z,99.42
2022-11-01T03:58:45.250Z,97.57
2022-11-01T04:01:16.592Z,96.75
2022-11-01T04:03:45.033Z,96.75
2022-11-01T04:06:12.383Z,97.93
2022-11-01T04:08:39.859Z,97.49
2022-11-01T04:11:07.281Z,97.80
2022-11-01T04:13:34.651Z,98.29
2022-11-01T04:16:20.616Z,98.14
2022-11-01T04:19:06.512Z,99.32
2022-11-01T04:21:36.742Z,99.71
2022-11-01T04:24:04.310Z,99.81
2022-11-01T04:26:31.710Z,99.63
2022-11-01T04:28:59.057Z,99.67
2022-11-01T04:31:28.059Z,99.65
2022-11-01T04:33:56.862Z,99.64
2022-11-01T04:36:24.764Z,99.59
2022-11-01T04:38:55.738Z,99.47
2022-11-01T04:41:24.839Z,99.72
2022-11-01T04:44:00.235Z,99.76
2022-11-01T04:46:31.882Z,98.72
2022-11-01T04:48:59.243Z,97.97
2022-11-01T04:51:26.837Z,97.11
2022-11-01T04:53:54.138Z,96.83
2022-11-01T04:56:21.448Z,96.64
2022-11-01T04:58:48.746Z,96.98
2022-11-01T05:01:16.246Z,97.28
2022-11-01T05:03:43.753Z,97.53
2022-11-01T05:06:13.597Z,97.54
2022-11-01T05:08:43.852Z,97.92
2022-11-01T05:11:11.177Z,98.24
2022-11-01T05:13:40.525Z,98.83
2022-11-01T05:16:19.838Z,100.00
2022-11-01T05:18:48.761Z,100.00
2022-11-01T05:21:17.878Z,100.00
2022-11-01T05:23:47.950Z,100.00
2022-11-01T05:26:15.355Z,100.00
2022-11-01T05:28:42.733Z,100.00
2022-11-01T05:31:10.107Z,100.00
2022-11-01T05:33:38.488Z,100.00
2022-11-01T05:36:06.211Z,100.00
2022-11-01T05:38:33.568Z,100.00
2022-11-01T05:41:04.107Z,100.00
2022-11-01T05:43:31.572Z,100.00
2022-11-01T05:46:00.754Z,100.00
2022-11-01T05:48:28.118Z,100.00
2022-11-01T05:50:55.473Z,100.00
2022-11-01T05:53:22.820Z,100.00
2022-11-01T05:55:50.249Z,100.00
2022-11-01T05:58:17.569Z,100.00
2022-11-01T06:00:44.929Z,100.00
2022-11-01T06:03:12.283Z,99.94
2022-11-01T06:05:39.802Z,100.00
2022-11-01T06:08:07.360Z,100.00
2022-11-01T06:10:34.996Z,100.00
2022-11-01T06:13:02.712Z,99.38
2022-11-01T06:15:33.107Z,99.89
2022-11-01T06:18:04.202Z,100.00
2022-11-01T06:20:32.753Z,100.00
2022-11-01T06:23:00.537Z,100.00
2022-11-01T06:25:27.992Z,100.00
2022-11-01T06:27:55.305Z,100.00
2022-11-01T06:30:24.454Z,100.00
2022-11-01T06:32:52.994Z,99.87
2022-11-01T06:35:20.383Z,98.35
2022-11-01T06:37:47.664Z,97.45
2022-11-01T06:40:14.997Z,96.30
2022-11-01T06:42:46.381Z,95.73
2022-11-01T06:45:14.326Z,94.73
2022-11-01T06:47:46.530Z,94.46
2022-11-01T06:50:13.936Z,93.30
2022-11-01T06:52:41.278Z,91.72
2022-11-01T06:55:08.818Z,91.54
2022-11-01T06:57:36.103Z,91.31
2022-11-01T07:00:06.960Z,90.99
2022-11-01T07:02:34.447Z,90.56
2022-11-01T07:05:01.918Z,90.38
2022-11-01T07:07:29.406Z,89.74
2022-11-01T07:09:56.660Z,88.64
2022-11-01T07:12:23.973Z,87.85
2022-11-01T07:14:51.201Z,88.45
2022-11-01T07:17:18.565Z,88.70
2022-11-01T07:19:45.866Z,87.94
2022-11-01T07:22:14.345Z,87.12
2022-11-01T07:24:41.704Z,86.01
2022-11-01T07:27:09.055Z,87.19
2022-11-01T07:29:36.300Z,86.93
2022-11-01T07:32:03.592Z,86.84
2022-11-01T07:34:32.906Z,86.46
2022-11-01T07:37:02.360Z,87.38
2022-11-01T07:39:29.658Z,88.66
2022-11-01T07:41:58.987Z,89.78
2022-11-01T07:44:26.246Z,88.59
2022-11-01T07:46:53.632Z,89.41
2022-11-01T07:49:21.036Z,89.94
2022-11-01T07:51:48.318Z,89.93
2022-11-01T07:54:15.619Z,88.90
2022-11-01T07:56:43.053Z,89.26
2022-11-01T07:59:10.329Z,88.34
2022-11-01T08:01:37.738Z,86.86
2022-11-01T08:04:05.442Z,86.57
2022-11-01T08:06:32.860Z,85.22
2022-11-01T08:09:00.190Z,84.41
2022-11-01T08:11:28.631Z,85.25
2022-11-01T08:14:02.893Z,86.79
2022-11-01T08:16:33.522Z,84.94
2022-11-01T08:19:00.882Z,84.73
2022-11-01T08:21:28.276Z,84.83
2022-11-01T08:23:55.636Z,83.08
2022-11-01T08:26:23.009Z,81.80
2022-11-01T08:28:50.931Z,81.90
2022-11-01T08:31:21.208Z,82.17
2022-11-01T08:33:48.642Z,80.89
2022-11-01T08:36:17.405Z,80.28
2022-11-01T08:38:44.744Z,80.24
2022-11-01T08:41:12.112Z,80.52
2022-11-01T08:43:40.689Z,81.20
2022-11-01T08:46:10.686Z,81.02
2022-11-01T08:48:40.802Z,81.66
2022-11-01T08:51:08.146Z,82.62
2022-11-01T08:53:35.439Z,83.17
2022-11-01T08:56:02.829Z,83.30
2022-11-01T08:58:30.145Z,82.66
2022-11-01T09:00:57.459Z,83.43
2022-11-01T09:03:24.802Z,82.78
2022-11-01T09:05:55.043Z,83.58
2022-11-01T09:08:25.145Z,84.18
2022-11-01T09:10:57.896Z,83.65
2022-11-01T09:13:25.382Z,82.56
2022-11-01T09:15:58.479Z,81.48
2022-11-01T09:18:28.703Z,79.18
2022-11-01T09:20:56.549Z,78.16
2022-11-01T09:23:23.902Z,78.66
2022-11-01T09:25:51.366Z,77.77
2022-11-01T09:28:18.700Z,77.14
2022-11-01T09:30:50.231Z,77.23
2022-11-01T09:33:28.507Z,76.67
2022-11-01T09:35:59.543Z,77.60
2022-11-01T09:38:27.978Z,76.17
2022-11-01T09:41:14.297Z,75.83
2022-11-01T09:43:44.065Z,74.47
2022-11-01T09:46:15.871Z,75.54
2022-11-01T09:48:45.505Z,76.12
2022-11-01T09:51:19.716Z,76.06
2022-11-01T09:53:54.068Z,76.03
2022-11-01T09:56:30.387Z,75.79
2022-11-01T09:59:22.661Z,76.16
2022-11-01T10:02:26.381Z,76.91
2022-11-01T10:05:27.613Z,78.43
2022-11-01T10:08:10.758Z,79.00
2022-11-01T10:11:09.399Z,78.91
2022-11-01T10:13:54.336Z,78.58
2022-11-01T10:16:37.721Z,79.55
2022-11-01T10:19:17.462Z,80.42
2022-11-01T10:21:47.117Z,80.45
2022-11-01T10:24:20.520Z,79.88
2022-11-01T10:26:54.111Z,79.68
2022-11-01T10:29:36.252Z,80.24
2022-11-01T10:32:04.254Z,81.22
2022-11-01T10:34:38.671Z,79.85
2022-11-01T10:37:23.556Z,80.40
2022-11-01T10:39:59.057Z,81.14
2022-11-01T10:42:30.364Z,79.89
2022-11-01T10:45:06.549Z,79.12
2022-11-01T10:47:33.940Z,78.49
2022-11-01T10:50:20.939Z,77.93
2022-11-01T10:52:48.171Z,78.26
2022-11-01T10:55:33.136Z,77.46
2022-11-01T10:58:08.658Z,77.40
2022-11-01T11:00:40.048Z,77.72
2022-11-01T11:03:30.382Z,78.47
2022-11-01T11:06:01.541Z,78.94
2022-11-01T11:08:28.969Z,79.16
2022-11-01T11:11:01.636Z,79.08
2022-11-01T11:13:30.481Z,79.86
2022-11-01T11:16:05.453Z,80.00
2022-11-01T11:18:35.402Z,80.32
2022-11-01T11:21:06.179Z,79.98
2022-11-01T11:23:34.758Z,79.26
2022-11-01T11:26:16.585Z,78.71
2022-11-01T11:28:48.900Z,78.18
2022-11-01T11:31:23.101Z,79.46
2022-11-01T11:33:56.570Z,77.35
2022-11-01T11:36:34.011Z,77.50
2022-11-01T11:39:02.820Z,78.94
2022-11-01T11:41:33.222Z,78.29
2022-11-01T11:44:01.613Z,78.30
2022-11-01T11:46:29.520Z,78.01
2022-11-01T11:49:07.215Z,77.77
2022-11-01T11:51:39.430Z,78.69
2022-11-01T11:54:37.670Z,78.78
2022-11-01T11:57:11.699Z,79.14
2022-11-01T11:59:40.191Z,79.63
2022-11-01T12:02:18.965Z,79.46
2022-11-01T12:04:53.195Z,78.89
2022-11-01T12:07:27.659Z,78.38
2022-11-01T12:09:56.337Z,78.30
2022-11-01T12:12:29.608Z,78.20
2022-11-01T12:14:58.950Z,77.64
2022-11-01T12:17:44.837Z,77.46
2022-11-01T12:20:22.309Z,78.03
2022-11-01T12:22:59.218Z,76.50
2022-11-01T12:25:26.884Z,76.65
2022-11-01T12:28:03.481Z,76.40
2022-11-01T12:30:33.506Z,75.68
2022-11-01T12:33:27.779Z,74.45
2022-11-01T12:35:58.445Z,74.40
2022-11-01T12:38:48.891Z,74.02
2022-11-01T12:41:38.059Z,74.09
2022-11-01T12:44:43.967Z,74.07
2022-11-01T12:47:27.790Z,73.69
2022-11-01T12:50:07.292Z,73.49
2022-11-01T12:53:01.191Z,73.77
2022-11-01T12:55:39.916Z,73.93
2022-11-01T12:58:19.127Z,71.82
2022-11-01T13:01:02.350Z,70.58
2022-11-01T13:03:49.678Z,71.77
2022-11-01T13:06:54.330Z,71.98
2022-11-01T13:09:40.478Z,73.34
2022-11-01T13:12:40.135Z,72.64
2022-11-01T13:15:25.591Z,72.26
2022-11-01T13:18:35.787Z,72.30
2022-11-01T13:21:15.342Z,72.66
2022-11-01T13:23:49.981Z,72.55
2022-11-01T13:26:37.645Z,73.33
2022-11-01T13:29:14.327Z,73.58
2022-11-01T13:32:07.487Z,73.17
2022-11-01T13:35:02.120Z,73.21
2022-11-01T13:37:45.339Z,71.26
2022-11-01T13:40:18.666Z,70.40
2022-11-01T13:42:59.939Z,69.03
2022-11-01T13:45:33.540Z,68.38
2022-11-01T13:48:18.992Z,68.23
2022-11-01T13:50:58.386Z,67.23
2022-11-01T13:53:25.684Z,67.47
2022-11-01T13:55:55.434Z,67.06
2022-11-01T13:58:23.929Z,66.65
2022-11-01T14:00:54.533Z,66.98
2022-11-01T14:03:31.578Z,66.83
2022-11-01T14:06:11.560Z,65.24
2022-11-01T14:08:44.038Z,65.14
2022-11-01T14:11:32.337Z,66.04
2022-11-01T14:13:59.864Z,66.23
2022-11-01T14:16:28.236Z,65.33
2022-11-01T14:19:20.752Z,65.52
2022-11-01T14:21:51.830Z,65.63
2022-11-01T14:24:33.829Z,66.03
2022-11-01T14:27:07.859Z,66.18
2022-11-01T14:29:36.630Z,65.90
2022-11-01T14:32:05.718Z,66.36
2022-11-01T14:34:36.094Z,66.58
2022-11-01T14:37:13.881Z,66.32
2022-11-01T14:39:49.674Z,66.29
2022-11-01T14:42:23.243Z,66.42
2022-11-01T14:44:53.808Z,67.02
2022-11-01T14:47:31.398Z,67.38
2022-11-01T14:50:02.919Z,67.84
2022-11-01T14:52:40.681Z,68.30
2022-11-01T14:55:32.286Z,67.78
2022-11-01T14:58:19.617Z,67.60
2022-11-01T15:00:49.703Z,67.54
2022-11-01T15:03:18.470Z,68.06
2022-11-01T15:05:49.114Z,68.14
2022-11-01T15:08:44.719Z,68.38
2022-11-01T15:11:12.189Z,68.62
2022-11-01T15:13:43.061Z,68.83
2022-11-01T15:16:16.007Z,68.97
2022-11-01T15:18:51.734Z,68.65
2022-11-01T15:21:25.515Z,68.59
2022-11-01T15:23:57.424Z,68.88
2022-11-01T15:26:30.434Z,69.19
2022-11-01T15:29:01.432Z,70.07
2022-11-01T15:31:29.364Z,70.63
2022-11-01T15:34:06.350Z,70.80
2022-11-01T15:36:36.838Z,70.22
2022-11-01T15:39:17.499Z,69.80
2022-11-01T15:41:46.612Z,70.72
2022-11-01T15:44:32.448Z,73.20
2022-11-01T15:47:02.338Z,74.53
2022-11-01T15:49:32.082Z,72.60
2022-11-01T15:52:05.201Z,71.33
2022-11-01T15:54:32.473Z,70.51
2022-11-01T15:57:04.486Z,71.00
2022-11-01T15:59:36.785Z,71.32
2022-11-01T16:02:08.671Z,71.43
2022-11-01T16:04:40.915Z,70.50
2022-11-01T16:07:12.490Z,70.83
2022-11-01T16:09:47.358Z,71.26
2022-11-01T16:12:27.185Z,72.50
2022-11-01T16:15:06.475Z,73.14
2022-11-01T16:17:42.892Z,73.92
2022-11-01T16:20:34.469Z,74.80
2022-11-01T16:23:07.025Z,74.05
2022-11-01T16:25:39.319Z,73.54
2022-11-01T16:28:09.617Z,73.51
2022-11-01T16:30:46.509Z,74.66
2022-11-01T16:33:30.738Z,75.12
2022-11-01T16:36:20.819Z,76.05
2022-11-01T16:38:51.976Z,76.75
2022-11-01T16:41:22.712Z,78.64
2022-11-01T16:43:55.364Z,79.36
2022-11-01T16:46:24.426Z,80.75
2022-11-01T16:49:05.623Z,82.82
2022-11-01T16:51:33.728Z,85.17
2022-11-01T16:54:01.315Z,86.00
2022-11-01T16:56:38.446Z,86.44
2022-11-01T16:59:12.429Z,88.44
2022-11-01T17:01:40.000Z,88.67
2022-11-01T17:04:11.294Z,89.77
2022-11-01T17:06:39.508Z,89.47
2022-11-01T17:09:14.757Z,89.52
2022-11-01T17:11:47.803Z,89.83
2022-11-01T17:14:18.118Z,89.99
2022-11-01T17:16:47.632Z,90.82
2022-11-01T17:19:21.452Z,91.16
2022-11-01T17:21:50.901Z,92.30
2022-11-01T17:24:21.336Z,92.35
2022-11-01T17:26:51.014Z,92.98
2022-11-01T17:29:18.409Z,93.29
2022-11-01T17:31:45.735Z,92.77
2022-11-01T17:34:16.899Z,93.87
2022-11-01T17:36:48.037Z,93.23
2022-11-01T17:39:15.531Z,93.31
2022-11-01T17:41:42.921Z,93.37
2022-11-01T17:44:12.205Z,93.83
2022-11-01T17:46:40.031Z,93.97
2022-11-01T17:49:07.487Z,94.20
2022-11-01T17:51:34.891Z,94.94
2022-11-01T17:54:02.224Z,94.57
2022-11-01T17:56:29.596Z,95.68
2022-11-01T17:58:56.911Z,96.01
2022-11-01T18:01:24.889Z,96.64
2022-11-01T18:03:52.287Z,96.56
2022-11-01T18:06:19.632Z,96.72
2022-11-01T18:08:50.504Z,96.39
2022-11-01T18:11:34.457Z,96.96
2022-11-01T18:14:30.980Z,97.74
2022-11-01T18:17:13.201Z,97.62
2022-11-01T18:19:59.111Z,97.70
2022-11-01T18:22:38.427Z,98.69
2022-11-01T18:25:24.259Z,98.52
2022-11-01T18:27:51.795Z,98.04
2022-11-01T18:30:19.529Z,97.53
2022-11-01T18:33:04.950Z,97.53
2022-11-01T18:35:41.888Z,99.93
2022-11-01T18:38:21.904Z,99.91
2022-11-01T18:40:57.217Z,100.00
2022-11-01T18:43:27.078Z,100.00
2022-11-01T18:46:23.476Z,99.49
2022-11-01T18:48:42.792Z,99.55
2022-11-01T18:51:21.247Z,98.11
2022-11-01T18:53:54.813Z,97.82
2022-11-01T18:56:25.567Z,98.20
2022-11-01T18:58:55.327Z,97.79
2022-11-01T19:01:32.525Z,97.87
2022-11-01T19:04:21.481Z,98.92
2022-11-01T19:06:51.554Z,99.50
2022-11-01T19:09:24.472Z,99.99
2022-11-01T19:12:00.860Z,100.00
2022-11-01T19:14:30.436Z,100.00
2022-11-01T19:16:58.132Z,100.00
2022-11-01T19:19:25.571Z,100.00
2022-11-01T19:21:59.059Z,100.00
2022-11-01T19:24:36.132Z,100.00
2022-11-01T19:27:18.418Z,100.00
2022-11-01T19:29:45.853Z,100.00
2022-11-01T19:32:16.402Z,100.00
2022-11-01T19:34:43.898Z,100.00
2022-11-01T19:37:34.626Z,100.00
2022-11-01T19:40:09.953Z,100.00
2022-11-01T19:42:38.868Z,100.00
2022-11-01T19:45:12.385Z,100.00
2022-11-01T19:47:43.231Z,100.00
2022-11-01T19:50:34.061Z,100.00
2022-11-01T19:53:01.654Z,100.00
2022-11-01T19:56:05.039Z,100.00
2022-11-01T19:58:49.078Z,100.00
2022-11-01T20:01:16.596Z,100.00
2022-11-01T20:03:46.056Z,100.00
2022-11-01T20:06:21.288Z,100.00
2022-11-01T20:08:58.422Z,100.00
2022-11-01T20:11:26.959Z,100.00
2022-11-01T20:13:57.575Z,100.00
2022-11-01T20:16:25.781Z,100.00
2022-11-01T20:18:53.883Z,100.00
2022-11-01T20:21:22.486Z,100.00
2022-11-01T20:23:50.073Z,100.00
2022-11-01T20:26:17.533Z,100.00
2022-11-01T20:28:44.955Z,100.00
2022-11-01T20:31:13.930Z,100.00
2022-11-01T20:33:41.467Z,100.00
2022-11-01T20:36:11.437Z,100.00
2022-11-01T20:38:40.875Z,100.00
2022-11-01T20:41:09.720Z,100.00
2022-11-01T20:43:37.377Z,100.00
2022-11-01T20:46:04.963Z,100.00
2022-11-01T20:48:34.204Z,100.00
2022-11-01T20:51:01.913Z,100.00
2022-11-01T20:53:30.036Z,100.00
2022-11-01T20:55:57.572Z,100.00
2022-11-01T20:58:28.574Z,100.00
2022-11-01T21:00:56.462Z,100.00
2022-11-01T21:03:25.623Z,100.00
2022-11-01T21:05:53.301Z,100.00
2022-11-01T21:08:34.207Z,100.00
2022-11-01T21:11:08.131Z,100.00
2022-11-01T21:13:39.052Z,100.00
2022-11-01T21:16:24.335Z,100.00
2022-11-01T21:18:54.975Z,100.00
2022-11-01T21:21:27.417Z,100.00
2022-11-01T21:23:55.182Z,100.00
2022-11-01T21:26:25.917Z,100.00
2022-11-01T21:29:02.353Z,100.00
2022-11-01T21:31:34.502Z,100.00
2022-11-01T21:34:11.015Z,100.00
2022-11-01T21:36:48.472Z,100.00
2022-11-01T21:39:26.994Z,100.00
2022-11-01T21:41:57.069Z,100.00
2022-11-01T21:44:40.022Z,100.00
2022-11-01T21:47:23.333Z,100.00
2022-11-01T21:49:51.445Z,100.00
2022-11-01T21:52:21.630Z,100.00
2022-11-01T21:54:49.347Z,100.00
2022-11-01T21:57:17.311Z,100.00
2022-11-01T21:59:44.941Z,100.00
2022-11-01T22:02:14.307Z,100.00
2022-11-01T22:04:42.175Z,100.00
2022-11-01T22:07:11.082Z,100.00
2022-11-01T22:09:39.089Z,100.00
2022-11-01T22:12:07.051Z,100.00
2022-11-01T22:14:34.990Z,100.00
2022-11-01T22:17:02.413Z,100.00
2022-11-01T22:19:29.789Z,100.00
2022-11-01T22:21:57.130Z,100.00
2022-11-01T22:24:27.115Z,100.00
2022-11-01T22:26:54.462Z,100.00
2022-11-01T22:29:21.814Z,100.00
2022-11-01T22:31:49.163Z,100.00
2022-11-01T22:34:17.471Z,100.00
2022-11-01T22:36:44.954Z,100.00
2022-11-01T22:39:23.522Z,100.00
2022-11-01T22:41:51.309Z,100.00
2022-11-01T22:44:25.299Z,100.00
2022-11-01T22:46:58.991Z,100.00
2022-11-01T22:49:31.448Z,100.00
2022-11-01T22:52:16.768Z,100.00
2022-11-01T22:54:47.726Z,100.00
2022-11-01T22:57:19.117Z,100.00
2022-11-01T22:59:51.808Z,100.00
2022-11-01T23:02:33.604Z,100.00
2022-11-01T23:05:24.886Z,100.00
2022-11-01T23:07:57.973Z,100.00
2022-11-01T23:10:25.646Z,100.00
2022-11-01T23:13:19.469Z,100.00
2022-11-01T23:15:47.166Z,100.00
2022-11-01T23:18:27.808Z,100.00
2022-11-01T23:21:00.460Z,100.00
2022-11-01T23:23:29.023Z,100.00
2022-11-01T23:25:59.370Z,100.00
2022-11-01T23:28:27.647Z,100.00
2022-11-01T23:30:56.386Z,100.00
2022-11-01T23:33:30.935Z,100.00
2022-11-01T23:36:00.934Z,100.00
2022-11-01T23:38:51.200Z,100.00
2022-11-01T23:41:23.664Z,100.00
2022-11-01T23:43:53.696Z,100.00
2022-11-01T23:46:21.264Z,100.00
2022-11-01T23:48:49.214Z,100.00
2022-11-01T23:51:21.343Z,100.00
2022-11-01T23:53:52.970Z,100.00
2022-11-01T23:56:22.009Z,100.00
2022-11-01T23:59:04.303Z,100.00
